createdAt,value
2023-01-03T00:00:55.007Z,56.61
2023-01-03T00:03:21.553Z,55.56
2023-01-03T00:05:48.837Z,55.53
2023-01-03T00:08:15.605Z,56.27
2023-01-03T00:10:42.452Z,55.90
2023-01-03T00:13:10.001Z,57.70
2023-01-03T00:15:38.799Z,56.66
2023-01-03T00:18:05.398Z,56.32
2023-01-03T00:20:34.385Z,56.45
2023-01-03T00:23:02.132Z,56.70
2023-01-03T00:25:29.778Z,56.11
2023-01-03T00:27:56.335Z,56.56
2023-01-03T00:30:23.918Z,56.18
2023-01-03T00:32:50.476Z,55.85
2023-01-03T00:35:17.018Z,55.68
2023-01-03T00:37:43.558Z,55.66
2023-01-03T00:40:11.208Z,56.84
2023-01-03T00:42:58.226Z,56.11
2023-01-03T00:45:25.873Z,55.90
2023-01-03T00:47:53.003Z,56.00
2023-01-03T00:50:19.897Z,57.19
2023-01-03T00:52:46.420Z,57.24
2023-01-03T00:55:12.928Z,56.03
2023-01-03T00:57:39.699Z,55.94
2023-01-03T01:00:06.931Z,56.49
2023-01-03T01:02:33.627Z,57.18
2023-01-03T01:05:00.355Z,57.08
2023-01-03T01:07:27.823Z,57.15
2023-01-03T01:09:54.397Z,56.03
2023-01-03T01:12:20.931Z,56.05
2023-01-03T01:14:47.476Z,56.40
2023-01-03T01:17:19.158Z,56.98
2023-01-03T01:19:48.914Z,56.54
2023-01-03T01:22:15.597Z,56.08
2023-01-03T01:24:42.120Z,57.00
2023-01-03T01:27:09.074Z,56.30
2023-01-03T01:29:37.340Z,56.83
2023-01-03T01:32:05.479Z,56.47
2023-01-03T01:34:32.020Z,56.58
2023-01-03T01:36:58.691Z,57.51
2023-01-03T01:39:27.406Z,56.77
2023-01-03T01:42:23.187Z,56.64
2023-01-03T01:45:03.763Z,56.23
2023-01-03T01:47:49.809Z,55.88
2023-01-03T01:50:38.556Z,55.67
2023-01-03T01:53:11.078Z,57.06
2023-01-03T01:55:44.573Z,57.40
2023-01-03T01:58:12.580Z,56.68
2023-01-03T02:00:41.560Z,56.68
2023-01-03T02:03:08.289Z,56.57
2023-01-03T02:05:37.236Z,56.90
2023-01-03T02:08:05.300Z,56.59
2023-01-03T02:10:49.321Z,56.90
2023-01-03T02:13:29.220Z,56.66
2023-01-03T02:16:03.994Z,56.34
2023-01-03T02:18:40.237Z,56.65
2023-01-03T02:21:30.696Z,56.80
2023-01-03T02:24:31.971Z,57.36
2023-01-03T02:27:08.065Z,57.24
2023-01-03T02:29:54.614Z,57.38
2023-01-03T02:32:35.022Z,57.46
2023-01-03T02:35:25.837Z,57.53
2023-01-03T02:38:10.154Z,57.61
2023-01-03T02:40:56.054Z,57.88
2023-01-03T02:43:41.988Z,57.58
2023-01-03T02:46:16.319Z,56.48
2023-01-03T02:49:02.099Z,57.23
2023-01-03T02:51:37.908Z,56.47
2023-01-03T02:54:08.480Z,56.71
2023-01-03T02:57:07.008Z,56.70
2023-01-03T02:59:39.051Z,57.50
2023-01-03T03:02:08.882Z,56.70
2023-01-03T03:04:38.456Z,57.06
2023-01-03T03:07:13.631Z,56.64
2023-01-03T03:09:58.797Z,56.56
2023-01-03T03:12:48.367Z,56.83
2023-01-03T03:15:17.681Z,55.77
2023-01-03T03:17:46.397Z,55.91
2023-01-03T03:20:36.145Z,57.16
2023-01-03T03:23:27.309Z,56.59
2023-01-03T03:26:02.450Z,56.80
2023-01-03T03:28:36.122Z,56.01
2023-01-03T03:31:09.526Z,54.83
2023-01-03T03:33:43.551Z,56.85
2023-01-03T03:36:36.575Z,56.49
2023-01-03T03:39:06.100Z,56.01
2023-01-03T03:42:07.252Z,55.58
2023-01-03T03:45:01.056Z,55.32
2023-01-03T03:47:44.532Z,55.10
2023-01-03T03:50:25.852Z,54.86
2023-01-03T03:52:58.459Z,54.75
2023-01-03T03:55:32.756Z,54.77
2023-01-03T03:58:03.766Z,54.51
2023-01-03T04:00:34.707Z,53.95
2023-01-03T04:03:05.047Z,53.38
2023-01-03T04:05:34.997Z,53.19
2023-01-03T04:08:02.450Z,52.33
2023-01-03T04:10:32.702Z,53.00
2023-01-03T04:13:04.004Z,53.07
2023-01-03T04:15:30.526Z,53.15
2023-01-03T04:17:58.102Z,52.96
2023-01-03T04:20:24.632Z,51.93
2023-01-03T04:22:51.149Z,52.32
2023-01-03T04:25:17.753Z,53.48
2023-01-03T04:27:44.375Z,52.88
2023-01-03T04:30:11.775Z,52.85
2023-01-03T04:32:39.009Z,53.51
2023-01-03T04:35:06.007Z,53.63
2023-01-03T04:37:32.602Z,53.02
2023-01-03T04:39:59.641Z,53.91
2023-01-03T04:42:44.968Z,53.57
2023-01-03T04:45:11.810Z,53.05
2023-01-03T04:47:38.306Z,53.11
2023-01-03T04:50:05.234Z,53.70
2023-01-03T04:52:32.120Z,55.34
2023-01-03T04:54:59.610Z,55.03
2023-01-03T04:57:26.445Z,54.47
2023-01-03T04:59:52.963Z,54.35
2023-01-03T05:02:19.575Z,53.80
2023-01-03T05:04:46.684Z,54.39
2023-01-03T05:07:14.025Z,54.39
2023-01-03T05:09:40.578Z,54.33
2023-01-03T05:12:07.409Z,54.30
2023-01-03T05:14:33.930Z,55.13
2023-01-03T05:17:00.534Z,54.13
2023-01-03T05:19:27.066Z,54.91
2023-01-03T05:22:12.522Z,54.55
2023-01-03T05:24:58.202Z,54.12
2023-01-03T05:27:24.925Z,54.80
2023-01-03T05:29:53.139Z,55.29
2023-01-03T05:32:20.735Z,54.92
2023-01-03T05:34:47.790Z,55.67
2023-01-03T05:37:14.718Z,55.15
2023-01-03T05:39:41.218Z,55.51
2023-01-03T05:42:09.076Z,55.92
2023-01-03T05:44:36.628Z,55.26
2023-01-03T05:47:04.687Z,55.78
2023-01-03T05:49:31.272Z,55.94
2023-01-03T05:51:57.797Z,55.85
2023-01-03T05:54:24.718Z,56.99
2023-01-03T05:56:51.809Z,57.45
2023-01-03T05:59:19.085Z,56.34
2023-01-03T06:01:46.001Z,56.57
2023-01-03T06:04:12.763Z,55.43
2023-01-03T06:06:39.849Z,56.57
2023-01-03T06:09:06.399Z,56.79
2023-01-03T06:11:33.115Z,56.29
2023-01-03T06:14:00.645Z,57.06
2023-01-03T06:16:46.151Z,56.01
2023-01-03T06:19:13.668Z,55.75
2023-01-03T06:21:41.494Z,55.26
2023-01-03T06:24:08.973Z,55.64
2023-01-03T06:26:37.000Z,55.31
2023-01-03T06:29:04.450Z,55.08
2023-01-03T06:31:31.061Z,55.74
2023-01-03T06:33:57.682Z,55.48
2023-01-03T06:36:26.066Z,55.29
2023-01-03T06:38:53.811Z,55.43
2023-01-03T06:41:20.630Z,55.35
2023-01-03T06:43:47.244Z,55.25
2023-01-03T06:46:32.878Z,56.16
2023-01-03T06:49:18.881Z,55.27
2023-01-03T06:52:14.047Z,56.14
2023-01-03T06:54:41.150Z,56.28
2023-01-03T06:57:08.385Z,55.86
2023-01-03T06:59:35.217Z,55.61
2023-01-03T07:02:01.937Z,54.71
2023-01-03T07:04:28.603Z,55.58
2023-01-03T07:06:55.393Z,55.53
2023-01-03T07:09:22.210Z,57.16
2023-01-03T07:11:54.029Z,56.08
2023-01-03T07:14:20.767Z,55.74
2023-01-03T07:16:48.492Z,55.83
2023-01-03T07:19:19.014Z,54.98
2023-01-03T07:21:46.256Z,55.08
2023-01-03T07:24:15.505Z,54.62
2023-01-03T07:26:42.030Z,54.82
2023-01-03T07:29:10.699Z,55.52
2023-01-03T07:31:41.117Z,55.09
2023-01-03T07:34:08.832Z,55.84
2023-01-03T07:36:37.065Z,55.14
2023-01-03T07:39:03.720Z,54.84
2023-01-03T07:41:48.679Z,54.62
2023-01-03T07:44:15.234Z,54.90
2023-01-03T07:46:41.832Z,54.33
2023-01-03T07:49:11.921Z,54.48
2023-01-03T07:51:39.417Z,54.68
2023-01-03T07:54:07.279Z,54.64
2023-01-03T07:56:34.280Z,56.67
2023-01-03T07:59:00.855Z,55.74
2023-01-03T08:01:27.690Z,55.91
2023-01-03T08:03:54.315Z,55.85
2023-01-03T08:06:23.739Z,55.77
2023-01-03T08:09:10.293Z,54.73
2023-01-03T08:11:55.967Z,55.23
2023-01-03T08:14:26.037Z,55.15
2023-01-03T08:16:53.570Z,56.89
2023-01-03T08:19:20.832Z,59.02
2023-01-03T08:21:47.391Z,58.15
2023-01-03T08:24:13.959Z,57.73
2023-01-03T08:26:40.575Z,56.63
2023-01-03T08:29:07.466Z,56.47
2023-01-03T08:31:37.951Z,55.23
2023-01-03T08:34:12.038Z,53.08
2023-01-03T08:36:48.977Z,50.10
2023-01-03T08:39:21.431Z,49.07
2023-01-03T08:41:54.461Z,47.54
2023-01-03T08:44:21.455Z,47.18
2023-01-03T08:46:51.455Z,46.34
2023-01-03T08:49:19.075Z,45.28
2023-01-03T08:51:46.069Z,43.03
2023-01-03T08:54:13.809Z,42.48
2023-01-03T08:56:40.599Z,42.33
2023-01-03T08:59:07.143Z,42.51
2023-01-03T09:01:34.259Z,42.75
2023-01-03T09:04:01.076Z,42.17
2023-01-03T09:06:27.663Z,40.63
2023-01-03T09:08:54.220Z,40.81
2023-01-03T09:11:20.729Z,41.04
2023-01-03T09:13:47.327Z,40.76
2023-01-03T09:16:15.950Z,40.24
2023-01-03T09:18:42.759Z,40.54
2023-01-03T09:21:09.325Z,38.82
2023-01-03T09:23:36.865Z,39.54
2023-01-03T09:26:04.207Z,38.54
2023-01-03T09:28:30.807Z,38.07
2023-01-03T09:30:57.428Z,37.79
2023-01-03T09:33:24.049Z,37.93
2023-01-03T09:35:54.908Z,38.56
2023-01-03T09:38:22.888Z,39.64
2023-01-03T09:41:06.136Z,39.77
2023-01-03T09:43:41.011Z,40.04
2023-01-03T09:46:17.116Z,39.28
2023-01-03T09:48:44.357Z,39.03
2023-01-03T09:51:48.149Z,39.23
2023-01-03T09:54:41.533Z,39.15
2023-01-03T09:57:36.517Z,39.10
2023-01-03T10:00:29.344Z,39.11
2023-01-03T10:03:51.594Z,38.85
2023-01-03T10:06:43.595Z,39.08
2023-01-03T10:09:46.083Z,39.35
2023-01-03T10:12:45.606Z,38.42
2023-01-03T10:15:30.405Z,38.38
2023-01-03T10:18:41.376Z,39.19
2023-01-03T10:21:12.318Z,39.27
2023-01-03T10:23:39.329Z,39.29
2023-01-03T10:26:11.516Z,39.62
2023-01-03T10:28:42.732Z,39.67
2023-01-03T10:31:19.263Z,39.16
2023-01-03T10:33:47.765Z,39.16
2023-01-03T10:36:20.534Z,39.58
2023-01-03T10:38:52.875Z,40.68
2023-01-03T10:41:45.966Z,41.05
2023-01-03T10:44:25.536Z,41.09
2023-01-03T10:46:54.768Z,39.93
2023-01-03T10:49:29.487Z,41.05
2023-01-03T10:52:02.620Z,41.45
2023-01-03T10:54:41.311Z,42.07
2023-01-03T10:57:08.045Z,41.91
2023-01-03T10:59:35.498Z,41.48
2023-01-03T11:02:16.484Z,41.34
2023-01-03T11:04:44.263Z,42.10
2023-01-03T11:07:13.580Z,41.62
2023-01-03T11:09:56.990Z,41.19
2023-01-03T11:12:26.448Z,42.63
2023-01-03T11:14:56.269Z,42.21
2023-01-03T11:17:25.411Z,42.27
2023-01-03T11:19:53.359Z,43.13
2023-01-03T11:22:38.783Z,43.00
2023-01-03T11:25:17.464Z,43.44
2023-01-03T11:28:02.309Z,44.75
2023-01-03T11:30:53.786Z,44.97
2023-01-03T11:34:14.918Z,45.78
2023-01-03T11:37:09.516Z,46.75
2023-01-03T11:39:53.696Z,47.76
2023-01-03T11:42:36.080Z,47.53
2023-01-03T11:45:24.504Z,47.90
2023-01-03T11:48:00.069Z,48.16
2023-01-03T11:51:04.381Z,49.01
2023-01-03T11:53:38.100Z,49.18
2023-01-03T11:56:33.201Z,50.20
2023-01-03T11:59:18.244Z,49.76
2023-01-03T12:02:11.313Z,49.10
2023-01-03T12:05:07.073Z,48.75
2023-01-03T12:07:56.116Z,48.76
2023-01-03T12:10:28.766Z,48.53
2023-01-03T12:13:10.799Z,49.00
2023-01-03T12:15:46.280Z,48.67
2023-01-03T12:18:37.762Z,49.73
2023-01-03T12:21:11.529Z,49.53
2023-01-03T12:23:46.356Z,50.34
2023-01-03T12:26:15.485Z,49.81
2023-01-03T12:28:51.234Z,49.25
2023-01-03T12:31:31.027Z,50.16
2023-01-03T12:34:07.307Z,48.70
2023-01-03T12:36:58.911Z,49.39
2023-01-03T12:39:32.496Z,49.94
2023-01-03T12:42:08.213Z,50.34
2023-01-03T12:44:44.665Z,50.47
2023-01-03T12:47:27.899Z,50.45
2023-01-03T12:50:11.224Z,50.04
2023-01-03T12:52:39.407Z,50.52
2023-01-03T12:55:19.636Z,50.07
2023-01-03T12:57:51.857Z,49.70
2023-01-03T13:00:58.808Z,49.76
2023-01-03T13:03:38.884Z,50.75
2023-01-03T13:06:21.966Z,50.94
2023-01-03T13:08:53.435Z,50.57
2023-01-03T13:11:28.487Z,50.32
2023-01-03T13:13:59.275Z,49.56
2023-01-03T13:16:30.348Z,49.15
2023-01-03T13:19:20.031Z,48.58
2023-01-03T13:21:53.072Z,48.38
2023-01-03T13:24:49.219Z,48.05
2023-01-03T13:27:22.599Z,48.14
2023-01-03T13:29:49.298Z,47.37
2023-01-03T13:32:21.817Z,48.70
2023-01-03T13:35:30.113Z,48.80
2023-01-03T13:37:59.723Z,48.26
2023-01-03T13:41:15.498Z,49.60
2023-01-03T13:43:22.369Z,49.99
2023-01-03T13:45:52.554Z,50.01
2023-01-03T13:48:30.382Z,50.55
2023-01-03T13:51:24.087Z,50.50
2023-01-03T13:54:24.174Z,50.67
2023-01-03T13:56:52.569Z,51.08
2023-01-03T13:59:42.653Z,50.92
2023-01-03T14:02:09.411Z,51.11
2023-01-03T14:05:14.687Z,52.29
2023-01-03T14:07:47.891Z,53.56
2023-01-03T14:10:23.977Z,53.08
2023-01-03T14:13:18.822Z,51.77
2023-01-03T14:15:47.348Z,52.08
2023-01-03T14:18:29.898Z,51.51
2023-01-03T14:20:58.051Z,52.40
2023-01-03T14:26:19.312Z,52.23
2023-01-03T14:28:49.487Z,52.81
2023-01-03T14:31:23.483Z,51.77
2023-01-03T14:33:59.481Z,51.68
2023-01-03T14:36:26.689Z,52.47
2023-01-03T14:39:00.963Z,52.44
2023-01-03T14:41:38.884Z,52.07
2023-01-03T14:44:11.493Z,51.60
2023-01-03T14:46:40.435Z,51.45
2023-01-03T14:49:22.750Z,52.03
2023-01-03T14:51:49.715Z,52.58
2023-01-03T14:54:19.484Z,53.92
2023-01-03T14:56:48.386Z,53.80
2023-01-03T14:59:19.581Z,53.58
2023-01-03T15:01:47.696Z,53.85
2023-01-03T15:04:16.792Z,53.22
2023-01-03T15:07:11.336Z,53.11
2023-01-03T15:09:40.096Z,53.04
2023-01-03T15:12:06.849Z,53.36
2023-01-03T15:14:36.099Z,53.38
2023-01-03T15:17:15.321Z,54.56
2023-01-03T15:19:49.895Z,54.46
2023-01-03T15:22:26.390Z,54.18
2023-01-03T15:25:03.632Z,53.06
2023-01-03T15:27:39.715Z,52.16
2023-01-03T15:30:20.691Z,52.34
2023-01-03T15:33:20.996Z,51.50
2023-01-03T15:35:51.271Z,51.44
2023-01-03T15:38:33.719Z,51.70
2023-01-03T15:41:03.147Z,52.05
2023-01-03T15:43:37.643Z,52.57
2023-01-03T15:46:20.134Z,52.23
2023-01-03T15:48:55.302Z,51.17
2023-01-03T15:51:21.840Z,51.07
2023-01-03T15:53:48.523Z,51.33
2023-01-03T15:56:24.452Z,51.31
2023-01-03T15:58:54.660Z,51.13
2023-01-03T16:01:23.666Z,51.20
2023-01-03T16:03:52.262Z,51.13
2023-01-03T16:06:19.232Z,51.22
2023-01-03T16:08:46.425Z,50.95
2023-01-03T16:11:34.901Z,51.64
2023-01-03T16:14:04.756Z,51.36
2023-01-03T16:16:35.316Z,51.40
2023-01-03T16:19:04.758Z,51.12
2023-01-03T16:21:31.753Z,51.00
2023-01-03T16:23:59.011Z,51.45
2023-01-03T16:26:25.936Z,51.14
2023-01-03T16:28:52.955Z,51.36
2023-01-03T16:31:28.352Z,51.61
2023-01-03T16:33:55.870Z,51.76
2023-01-03T16:36:36.398Z,52.52
2023-01-03T16:39:11.185Z,51.68
2023-01-03T16:41:37.760Z,51.35
2023-01-03T16:44:04.777Z,51.62
2023-01-03T16:46:31.875Z,52.15
2023-01-03T16:48:59.793Z,51.97
2023-01-03T16:51:30.316Z,52.19
2023-01-03T16:53:58.190Z,52.29
2023-01-03T16:56:25.438Z,52.10
2023-01-03T16:58:52.908Z,52.48
2023-01-03T17:01:20.153Z,52.92
2023-01-03T17:03:46.958Z,53.37
2023-01-03T17:06:25.534Z,52.62
2023-01-03T17:08:52.230Z,52.68
2023-01-03T17:11:19.023Z,52.89
2023-01-03T17:13:47.405Z,51.62
2023-01-03T17:16:17.874Z,52.04
2023-01-03T17:18:45.464Z,52.20
2023-01-03T17:21:16.756Z,51.46
2023-01-03T17:23:44.856Z,52.05
2023-01-03T17:26:15.228Z,52.96
2023-01-03T17:28:43.588Z,53.02
2023-01-03T17:31:18.457Z,53.54
2023-01-03T17:33:45.207Z,52.85
2023-01-03T17:36:14.753Z,52.53
2023-01-03T17:38:43.138Z,52.06
2023-01-03T17:41:17.683Z,52.24
2023-01-03T17:43:45.496Z,52.81
2023-01-03T17:46:42.817Z,52.12
2023-01-03T17:49:26.195Z,52.28
2023-01-03T17:51:58.821Z,52.68
2023-01-03T17:54:30.048Z,52.56
2023-01-03T17:56:59.901Z,52.52
2023-01-03T17:59:28.385Z,51.69
2023-01-03T18:01:55.884Z,52.97
2023-01-03T18:04:30.218Z,52.94
2023-01-03T18:07:05.430Z,52.29
2023-01-03T18:09:32.968Z,52.45
2023-01-03T18:11:59.507Z,52.14
2023-01-03T18:14:26.276Z,51.12
2023-01-03T18:16:55.244Z,51.01
2023-01-03T18:19:22.172Z,51.94
2023-01-03T18:21:49.045Z,52.27
2023-01-03T18:24:21.727Z,52.06
2023-01-03T18:26:52.134Z,51.37
2023-01-03T18:29:18.753Z,51.63
2023-01-03T18:31:46.732Z,51.56
2023-01-03T18:34:14.484Z,52.49
2023-01-03T18:36:51.784Z,53.29
2023-01-03T18:39:29.473Z,53.84
2023-01-03T18:42:17.507Z,52.52
2023-01-03T18:44:44.044Z,53.74
2023-01-03T18:47:14.407Z,54.67
2023-01-03T18:49:41.207Z,55.79
2023-01-03T18:52:35.117Z,54.96
2023-01-03T18:55:02.818Z,54.38
2023-01-03T18:57:29.791Z,54.06
2023-01-03T18:59:56.371Z,55.18
2023-01-03T19:02:23.021Z,54.09
2023-01-03T19:04:51.839Z,53.94
2023-01-03T19:07:26.977Z,54.63
2023-01-03T19:09:53.995Z,55.24
2023-01-03T19:12:20.531Z,54.16
2023-01-03T19:14:47.090Z,53.63
2023-01-03T19:17:16.818Z,54.01
2023-01-03T19:19:44.454Z,53.48
2023-01-03T19:22:27.817Z,53.64
2023-01-03T19:24:57.677Z,53.16
2023-01-03T19:27:33.791Z,53.28
2023-01-03T19:30:00.499Z,55.20
2023-01-03T19:32:29.399Z,55.72
2023-01-03T19:34:55.951Z,54.75
2023-01-03T19:37:23.874Z,54.67
2023-01-03T19:39:50.995Z,55.54
2023-01-03T19:42:39.370Z,55.42
2023-01-03T19:45:25.126Z,55.60
2023-01-03T19:47:51.664Z,54.38
2023-01-03T19:50:24.398Z,54.83
2023-01-03T19:52:51.765Z,53.73
2023-01-03T19:55:18.375Z,53.39
2023-01-03T19:57:48.734Z,53.48
2023-01-03T20:00:18.755Z,52.98
2023-01-03T20:02:46.471Z,52.88
2023-01-03T20:05:25.670Z,53.79
2023-01-03T20:07:53.261Z,53.42
2023-01-03T20:10:25.480Z,53.41
2023-01-03T20:12:57.606Z,52.99
2023-01-03T20:15:27.688Z,54.53
2023-01-03T20:17:54.946Z,53.61
2023-01-03T20:20:23.303Z,53.05
2023-01-03T20:23:10.113Z,53.02
2023-01-03T20:25:37.236Z,52.96
2023-01-03T20:28:04.780Z,53.69
2023-01-03T20:30:32.718Z,54.41
2023-01-03T20:32:59.936Z,55.27
2023-01-03T20:38:16.812Z,54.12
2023-01-03T20:40:43.413Z,53.69
2023-01-03T20:43:13.784Z,54.43
2023-01-03T20:45:40.681Z,54.42
2023-01-03T20:48:19.266Z,54.28
2023-01-03T20:50:47.681Z,54.46
2023-01-03T20:53:20.271Z,54.54
2023-01-03T20:55:48.559Z,54.30
2023-01-03T20:58:17.408Z,56.31
2023-01-03T21:00:44.448Z,57.58
2023-01-03T21:03:11.568Z,57.05
2023-01-03T21:05:38.765Z,57.56
2023-01-03T21:08:26.955Z,58.02
2023-01-03T21:10:53.786Z,57.81
2023-01-03T21:13:21.153Z,58.38
2023-01-03T21:15:48.922Z,59.27
2023-01-03T21:18:16.230Z,59.94
2023-01-03T21:20:43.575Z,59.28
2023-01-03T21:23:22.103Z,58.82
2023-01-03T21:25:49.976Z,59.14
2023-01-03T21:28:16.583Z,58.63
2023-01-03T21:30:43.234Z,59.42
2023-01-03T21:33:17.014Z,59.54
2023-01-03T21:35:44.816Z,59.54
2023-01-03T21:38:12.371Z,59.69
2023-01-03T21:40:38.954Z,61.61
2023-01-03T21:43:06.131Z,61.00
2023-01-03T21:45:34.370Z,61.68
2023-01-03T21:48:02.872Z,60.08
2023-01-03T21:50:30.763Z,59.61
2023-01-03T21:52:58.004Z,59.06
2023-01-03T21:55:25.241Z,59.49
2023-01-03T21:57:53.343Z,59.64
2023-01-03T22:00:20.043Z,61.48
2023-01-03T22:03:06.221Z,61.57
2023-01-03T22:05:33.046Z,59.69
2023-01-03T22:08:01.716Z,60.53
2023-01-03T22:10:30.256Z,58.99
2023-01-03T22:13:02.536Z,58.02
2023-01-03T22:15:29.085Z,58.05
2023-01-03T22:17:55.673Z,58.94
2023-01-03T22:20:24.996Z,58.14
2023-01-03T22:22:52.742Z,57.91
2023-01-03T22:25:22.102Z,57.01
2023-01-03T22:27:49.988Z,57.28
2023-01-03T22:30:19.368Z,57.98
2023-01-03T22:32:46.917Z,57.15
2023-01-03T22:35:15.530Z,55.84
2023-01-03T22:37:42.531Z,58.30
2023-01-03T22:40:13.393Z,59.11
2023-01-03T22:42:39.924Z,58.45
2023-01-03T22:45:07.585Z,58.81
2023-01-03T22:47:36.883Z,58.22
2023-01-03T22:50:05.498Z,57.52
2023-01-03T22:52:32.048Z,58.45
2023-01-03T22:54:59.117Z,59.71
2023-01-03T22:57:25.627Z,59.12
2023-01-03T22:59:52.481Z,58.56
2023-01-03T23:02:23.149Z,57.25
2023-01-03T23:04:52.818Z,58.59
2023-01-03T23:07:19.439Z,56.44
2023-01-03T23:09:46.261Z,55.88
2023-01-03T23:12:31.789Z,56.08
2023-01-03T23:14:58.587Z,55.77
2023-01-03T23:17:43.821Z,55.18
2023-01-03T23:20:10.480Z,56.23
2023-01-03T23:22:37.484Z,56.95
2023-01-03T23:25:04.459Z,57.69
2023-01-03T23:27:31.011Z,56.24
2023-01-03T23:29:57.544Z,56.04
2023-01-03T23:32:24.536Z,56.32
2023-01-03T23:34:51.068Z,56.16
2023-01-03T23:37:17.605Z,55.52
2023-01-03T23:39:44.173Z,57.23
2023-01-03T23:42:10.984Z,57.03
2023-01-03T23:44:37.554Z,56.04
2023-01-03T23:47:11.040Z,57.65
2023-01-03T23:49:38.745Z,57.43
2023-01-03T23:52:05.278Z,57.24
2023-01-03T23:54:31.811Z,56.80
2023-01-03T23:56:58.385Z,56.69
2023-01-03T23:59:25.203Z,56.58
